createdAt,value
2022-10-02T00:00:20.924Z,12.75
2022-10-02T00:02:55.395Z,12.88
2022-10-02T00:05:36.854Z,12.78
2022-10-02T00:08:12.265Z,12.70
2022-10-02T00:10:44.840Z,12.76
2022-10-02T00:13:17.228Z,12.78
2022-10-02T00:15:44.627Z,12.80
2022-10-02T00:18:15.268Z,12.78
2022-10-02T00:20:54.471Z,12.72
2022-10-02T00:23:35.858Z,12.76
2022-10-02T00:26:11.899Z,12.76
2022-10-02T00:28:52.239Z,12.68
2022-10-02T00:32:04.251Z,12.73
2022-10-02T00:34:49.611Z,12.62
2022-10-02T00:37:30.065Z,12.78
2022-10-02T00:40:15.851Z,12.80
2022-10-02T00:43:17.571Z,12.78
2022-10-02T00:45:59.792Z,12.79
2022-10-02T00:48:44.775Z,12.77
2022-10-02T00:51:26.440Z,12.81
2022-10-02T00:54:08.985Z,12.81
2022-10-02T00:56:58.929Z,12.69
2022-10-02T00:59:34.695Z,12.67
2022-10-02T01:02:11.719Z,12.62
2022-10-02T01:04:39.670Z,12.72
2022-10-02T01:07:09.187Z,12.73
2022-10-02T01:09:36.947Z,12.50
2022-10-02T01:12:03.862Z,12.44
2022-10-02T01:14:35.768Z,12.46
2022-10-02T01:17:03.444Z,12.39
2022-10-02T01:19:40.708Z,12.46
2022-10-02T01:22:25.692Z,12.35
2022-10-02T01:25:01.622Z,12.18
2022-10-02T01:27:28.478Z,12.05
2022-10-02T01:30:01.472Z,11.99
2022-10-02T01:32:29.305Z,11.92
2022-10-02T01:34:57.074Z,11.87
2022-10-02T01:37:26.658Z,11.94
2022-10-02T01:39:53.544Z,11.91
2022-10-02T01:42:21.283Z,11.91
2022-10-02T01:44:48.456Z,11.85
2022-10-02T01:47:19.866Z,11.87
2022-10-02T01:50:09.449Z,11.87
2022-10-02T01:52:57.747Z,11.84
2022-10-02T01:55:37.333Z,11.90
2022-10-02T01:58:16.623Z,11.89
2022-10-02T02:00:56.395Z,11.90
2022-10-02T02:03:51.299Z,11.89
2022-10-02T02:06:32.475Z,11.84
2022-10-02T02:09:30.619Z,11.82
2022-10-02T02:12:22.306Z,11.81
2022-10-02T02:14:58.774Z,11.80
2022-10-02T02:17:38.786Z,11.75
2022-10-02T02:20:09.157Z,11.66
2022-10-02T02:22:37.129Z,11.61
2022-10-02T02:25:08.782Z,11.62
2022-10-02T02:27:41.726Z,11.59
2022-10-02T02:30:12.055Z,11.68
2022-10-02T02:33:12.435Z,11.71
2022-10-02T02:35:42.672Z,11.70
2022-10-02T02:38:24.867Z,11.71
2022-10-02T02:40:54.146Z,11.73
2022-10-02T02:43:43.358Z,11.78
2022-10-02T02:46:19.849Z,11.76
2022-10-02T02:48:51.286Z,11.71
2022-10-02T02:51:22.558Z,11.63
2022-10-02T02:53:53.907Z,11.63
2022-10-02T02:56:21.814Z,11.66
2022-10-02T02:58:55.294Z,11.60
2022-10-02T03:01:22.646Z,11.59
2022-10-02T03:03:49.509Z,11.50
2022-10-02T03:06:16.256Z,11.45
2022-10-02T03:08:43.750Z,11.42
2022-10-02T03:11:48.225Z,11.47
2022-10-02T03:14:17.969Z,11.51
2022-10-02T03:17:03.303Z,11.45
2022-10-02T03:19:51.366Z,11.42
2022-10-02T03:22:57.290Z,11.46
2022-10-02T03:25:31.905Z,11.50
2022-10-02T03:28:54.428Z,11.46
2022-10-02T03:31:20.336Z,11.49
2022-10-02T03:33:47.721Z,11.45
2022-10-02T03:36:17.899Z,11.43
2022-10-02T03:38:53.246Z,11.47
2022-10-02T03:41:27.891Z,11.45
2022-10-02T03:43:55.044Z,11.41
2022-10-02T03:46:21.947Z,11.41
2022-10-02T03:48:48.866Z,11.44
2022-10-02T03:51:15.973Z,11.49
2022-10-02T03:53:42.842Z,11.53
2022-10-02T03:56:17.938Z,11.55
2022-10-02T03:58:47.304Z,11.49
2022-10-02T04:01:22.901Z,11.56
2022-10-02T04:04:11.612Z,11.71
2022-10-02T04:06:49.090Z,11.68
2022-10-02T04:09:53.733Z,11.73
2022-10-02T04:12:29.635Z,11.68
2022-10-02T04:15:25.259Z,11.71
2022-10-02T04:18:05.504Z,11.67
2022-10-02T04:21:00.695Z,11.71
2022-10-02T04:23:34.454Z,11.69
2022-10-02T04:26:08.693Z,11.67
2022-10-02T04:28:39.759Z,11.64
2022-10-02T04:31:12.672Z,11.63
2022-10-02T04:33:39.692Z,11.62
2022-10-02T04:36:30.576Z,11.68
2022-10-02T04:39:07.256Z,11.63
2022-10-02T04:41:40.233Z,11.73
2022-10-02T04:44:42.254Z,11.64
2022-10-02T04:47:24.647Z,11.58
2022-10-02T04:50:11.120Z,11.54
2022-10-02T04:53:01.700Z,11.54
2022-10-02T04:55:40.644Z,11.58
2022-10-02T04:58:38.072Z,11.60
2022-10-02T05:01:20.413Z,11.53
2022-10-02T05:04:11.933Z,11.56
2022-10-02T05:06:49.177Z,11.60
2022-10-02T05:09:29.601Z,11.63
2022-10-02T05:12:05.343Z,11.61
2022-10-02T05:14:38.985Z,11.66
2022-10-02T05:17:07.662Z,11.72
2022-10-02T05:19:43.753Z,11.77
2022-10-02T05:22:19.567Z,11.81
2022-10-02T05:24:55.361Z,11.82
2022-10-02T05:27:52.457Z,11.82
2022-10-02T05:30:20.011Z,11.89
2022-10-02T05:33:09.176Z,11.97
2022-10-02T05:36:07.358Z,12.03
2022-10-02T05:38:59.137Z,12.10
2022-10-02T05:42:13.683Z,12.13
2022-10-02T05:44:43.336Z,12.15
2022-10-02T05:47:19.924Z,12.23
2022-10-02T05:49:57.207Z,12.28
2022-10-02T05:52:30.130Z,12.33
2022-10-02T05:55:01.289Z,12.42
2022-10-02T05:57:34.746Z,12.57
2022-10-02T06:00:23.174Z,12.58
2022-10-02T06:02:53.157Z,12.56
2022-10-02T06:05:34.652Z,12.67
2022-10-02T06:08:04.022Z,12.79
2022-10-02T06:10:42.599Z,12.78
2022-10-02T06:13:18.775Z,12.91
2022-10-02T06:16:08.326Z,13.64
2022-10-02T06:18:36.552Z,16.13
2022-10-02T06:21:09.601Z,18.30
2022-10-02T06:23:43.410Z,19.56
2022-10-02T06:26:24.309Z,21.06
2022-10-02T06:28:54.213Z,22.24
2022-10-02T06:31:26.405Z,22.41
2022-10-02T06:33:53.558Z,23.04
2022-10-02T06:36:30.165Z,23.81
2022-10-02T06:39:22.109Z,24.12
2022-10-02T06:42:26.847Z,24.83
2022-10-02T06:45:10.345Z,25.34
2022-10-02T06:48:02.182Z,25.20
2022-10-02T06:51:09.777Z,25.19
2022-10-02T06:54:04.113Z,25.60
2022-10-02T06:56:54.350Z,25.68
2022-10-02T06:59:30.434Z,25.07
2022-10-02T07:02:17.431Z,24.48
2022-10-02T07:05:16.559Z,23.24
2022-10-02T07:07:58.703Z,23.83
2022-10-02T07:10:32.855Z,23.75
2022-10-02T07:13:09.439Z,23.66
2022-10-02T07:15:57.841Z,24.30
2022-10-02T07:18:50.606Z,24.34
2022-10-02T07:21:52.155Z,24.33
2022-10-02T07:24:36.449Z,24.18
2022-10-02T07:27:12.398Z,22.51
2022-10-02T07:29:57.657Z,23.02
2022-10-02T07:32:39.097Z,22.13
2022-10-02T07:35:22.049Z,22.78
2022-10-02T07:38:45.653Z,22.83
2022-10-02T07:41:23.914Z,22.36
2022-10-02T07:44:00.873Z,23.52
2022-10-02T07:46:43.235Z,24.12
2022-10-02T07:49:22.207Z,24.52
2022-10-02T07:52:04.671Z,23.55
2022-10-02T07:54:49.613Z,23.13
2022-10-02T07:57:39.834Z,21.87
2022-10-02T08:00:14.204Z,22.05
2022-10-02T08:02:55.163Z,22.43
2022-10-02T08:05:28.269Z,22.70
2022-10-02T08:08:00.286Z,22.42
2022-10-02T08:10:31.731Z,21.41
2022-10-02T08:13:04.794Z,21.25
2022-10-02T08:15:35.701Z,21.21
2022-10-02T08:18:35.354Z,21.43
2022-10-02T08:21:06.759Z,21.69
2022-10-02T08:23:56.841Z,21.12
2022-10-02T08:26:34.493Z,21.48
2022-10-02T08:29:15.371Z,21.41
2022-10-02T08:31:42.301Z,20.25
2022-10-02T08:34:26.150Z,20.04
2022-10-02T08:37:21.890Z,20.40
2022-10-02T08:39:51.764Z,20.53
2022-10-02T08:42:41.528Z,20.25
2022-10-02T08:45:47.743Z,20.18
2022-10-02T08:48:55.323Z,21.24
2022-10-02T08:51:39.895Z,21.54
2022-10-02T08:54:54.593Z,20.00
2022-10-02T08:57:39.698Z,19.84
2022-10-02T09:00:09.585Z,20.42
2022-10-02T09:03:13.047Z,20.20
2022-10-02T09:06:04.904Z,19.30
2022-10-02T09:08:51.239Z,19.42
2022-10-02T09:11:51.965Z,19.38
2022-10-02T09:14:45.115Z,19.77
2022-10-02T09:17:45.201Z,21.02
2022-10-02T09:20:18.033Z,22.82
2022-10-02T09:23:25.653Z,22.57
2022-10-02T09:25:54.283Z,21.44
2022-10-02T09:28:39.675Z,20.63
2022-10-02T09:31:30.224Z,21.14
2022-10-02T09:34:03.135Z,20.64
2022-10-02T09:37:04.979Z,20.21
2022-10-02T09:39:44.165Z,19.72
2022-10-02T09:42:23.184Z,18.86
2022-10-02T09:45:12.526Z,18.95
2022-10-02T09:48:01.478Z,18.48
2022-10-02T09:50:41.030Z,19.68
2022-10-02T09:53:32.634Z,20.13
2022-10-02T09:56:23.338Z,20.21
2022-10-02T09:59:27.665Z,20.13
2022-10-02T10:02:28.214Z,19.92
2022-10-02T10:05:13.753Z,19.27
2022-10-02T10:07:43.437Z,19.64
2022-10-02T10:10:18.842Z,19.86
2022-10-02T10:13:02.318Z,19.55
2022-10-02T10:16:08.130Z,19.58
2022-10-02T10:18:39.411Z,19.68
2022-10-02T10:21:29.390Z,19.45
2022-10-02T10:24:41.405Z,19.57
2022-10-02T10:27:38.893Z,19.79
2022-10-02T10:30:16.357Z,19.48
2022-10-02T10:33:12.636Z,19.52
2022-10-02T10:35:46.943Z,18.81
2022-10-02T10:38:52.158Z,18.82
2022-10-02T10:41:42.777Z,19.23
2022-10-02T10:44:31.673Z,19.60
2022-10-02T10:47:38.660Z,19.41
2022-10-02T10:50:17.529Z,19.96
2022-10-02T10:53:05.625Z,19.95
2022-10-02T10:55:40.094Z,19.93
2022-10-02T10:58:21.266Z,20.04
2022-10-02T11:01:11.032Z,20.50
2022-10-02T11:03:59.812Z,20.12
2022-10-02T11:06:45.925Z,19.73
2022-10-02T11:09:22.181Z,19.27
2022-10-02T11:12:12.817Z,19.54
2022-10-02T11:14:43.880Z,19.71
2022-10-02T11:17:24.470Z,19.48
2022-10-02T11:20:19.256Z,19.52
2022-10-02T11:23:07.842Z,19.98
2022-10-02T11:26:12.695Z,20.23
2022-10-02T11:29:17.133Z,20.49
2022-10-02T11:31:57.985Z,20.53
2022-10-02T11:35:03.633Z,20.60
2022-10-02T11:37:46.408Z,20.51
2022-10-02T11:40:26.631Z,20.83
2022-10-02T11:43:31.714Z,20.55
2022-10-02T11:46:21.605Z,19.31
2022-10-02T11:48:56.693Z,19.54
2022-10-02T11:51:46.373Z,20.10
2022-10-02T11:54:44.793Z,20.24
2022-10-02T11:57:50.966Z,20.45
2022-10-02T12:00:37.040Z,20.88
2022-10-02T12:03:12.833Z,20.76
2022-10-02T12:06:04.346Z,20.65
2022-10-02T12:08:53.318Z,20.42
2022-10-02T12:11:37.737Z,20.34
2022-10-02T12:14:08.393Z,19.74
2022-10-02T12:16:44.859Z,19.66
2022-10-02T12:19:18.303Z,19.69
2022-10-02T12:22:18.573Z,19.28
2022-10-02T12:25:20.427Z,19.09
2022-10-02T12:28:32.540Z,19.16
2022-10-02T12:31:10.821Z,19.01
2022-10-02T12:33:54.241Z,18.80
2022-10-02T12:36:44.870Z,19.18
2022-10-02T12:39:26.385Z,19.38
2022-10-02T12:42:02.447Z,19.61
2022-10-02T12:44:39.255Z,19.95
2022-10-02T12:47:23.452Z,20.08
2022-10-02T12:49:58.350Z,20.04
2022-10-02T12:52:28.821Z,19.82
2022-10-02T12:54:55.494Z,19.76
2022-10-02T12:57:55.340Z,20.03
2022-10-02T13:00:31.237Z,20.08
2022-10-02T13:03:35.798Z,20.24
2022-10-02T13:06:14.943Z,20.42
2022-10-02T13:08:48.406Z,20.42
2022-10-02T13:11:47.659Z,20.46
2022-10-02T13:14:17.991Z,20.48
2022-10-02T13:16:45.108Z,20.52
2022-10-02T13:19:30.523Z,20.33
2022-10-02T13:22:03.794Z,20.30
2022-10-02T13:25:01.399Z,20.41
2022-10-02T13:27:38.106Z,20.49
2022-10-02T13:30:17.863Z,20.54
2022-10-02T13:33:06.025Z,20.36
2022-10-02T13:36:07.837Z,20.33
2022-10-02T13:38:37.798Z,20.01
2022-10-02T13:41:16.722Z,19.65
2022-10-02T13:43:57.747Z,19.60
2022-10-02T13:46:49.142Z,19.51
2022-10-02T13:50:14.116Z,19.28
2022-10-02T13:52:52.023Z,19.15
2022-10-02T13:55:22.974Z,19.24
2022-10-02T13:58:20.624Z,19.36
2022-10-02T14:00:59.331Z,19.47
2022-10-02T14:03:49.054Z,19.43
2022-10-02T14:06:27.191Z,19.40
2022-10-02T14:09:03.473Z,19.37
2022-10-02T14:11:38.497Z,19.28
2022-10-02T14:14:11.885Z,19.03
2022-10-02T14:16:44.758Z,18.88
2022-10-02T14:19:29.799Z,19.02
2022-10-02T14:22:15.270Z,18.97
2022-10-02T14:25:00.944Z,19.00
2022-10-02T14:27:53.712Z,18.64
2022-10-02T14:30:29.295Z,18.30
2022-10-02T14:33:08.294Z,18.26
2022-10-02T14:35:52.559Z,18.39
2022-10-02T14:38:26.199Z,18.49
2022-10-02T14:40:59.267Z,18.62
2022-10-02T14:43:50.255Z,18.56
2022-10-02T14:46:36.012Z,18.56
2022-10-02T14:49:22.834Z,18.58
2022-10-02T14:52:08.295Z,18.48
2022-10-02T14:55:01.453Z,18.34
2022-10-02T14:57:47.433Z,18.21
2022-10-02T15:00:20.378Z,18.08
2022-10-02T15:03:11.751Z,18.04
2022-10-02T15:06:05.154Z,17.89
2022-10-02T15:08:40.432Z,17.83
2022-10-02T15:11:19.468Z,17.36
2022-10-02T15:13:50.465Z,17.07
2022-10-02T15:16:45.246Z,16.87
2022-10-02T15:19:27.190Z,16.76
2022-10-02T15:22:20.246Z,16.54
2022-10-02T15:25:17.907Z,16.49
2022-10-02T15:28:24.323Z,16.30
2022-10-02T15:31:03.809Z,16.14
2022-10-02T15:33:35.738Z,16.07
2022-10-02T15:36:35.455Z,16.11
2022-10-02T15:39:27.454Z,16.01
2022-10-02T15:42:08.736Z,15.92
2022-10-02T15:44:56.472Z,15.88
2022-10-02T15:47:38.214Z,15.81
2022-10-02T15:50:14.336Z,15.69
2022-10-02T15:53:11.361Z,15.66
2022-10-02T15:55:53.385Z,15.43
2022-10-02T15:58:57.334Z,15.20
2022-10-02T16:01:34.723Z,15.29
2022-10-02T16:04:19.667Z,15.21
2022-10-02T16:07:20.190Z,15.08
2022-10-02T16:10:12.106Z,14.91
2022-10-02T16:12:45.825Z,15.06
2022-10-02T16:15:31.639Z,15.11
2022-10-02T16:18:15.234Z,14.93
2022-10-02T16:21:00.722Z,14.90
2022-10-02T16:23:45.717Z,14.90
2022-10-02T16:26:24.971Z,14.81
2022-10-02T16:29:14.449Z,14.75
2022-10-02T16:32:15.744Z,15.05
2022-10-02T16:34:57.533Z,14.89
2022-10-02T16:37:29.238Z,14.69
2022-10-02T16:40:00.497Z,14.64
2022-10-02T16:42:57.825Z,14.65
2022-10-02T16:45:40.330Z,14.60
2022-10-02T16:48:19.371Z,14.66
2022-10-02T16:51:09.758Z,14.68
2022-10-02T16:53:55.590Z,14.75
2022-10-02T16:56:32.507Z,14.74
2022-10-02T16:59:16.153Z,14.58
2022-10-02T17:02:05.832Z,14.52
2022-10-02T17:05:06.549Z,14.56
2022-10-02T17:07:36.394Z,14.52
2022-10-02T17:10:15.510Z,14.43
2022-10-02T17:13:07.228Z,14.38
2022-10-02T17:15:42.149Z,14.34
2022-10-02T17:18:33.386Z,14.29
2022-10-02T17:21:12.904Z,14.27
2022-10-02T17:23:44.602Z,14.25
2022-10-02T17:26:27.089Z,14.25
2022-10-02T17:29:06.821Z,14.21
2022-10-02T17:31:35.616Z,14.22
2022-10-02T17:34:17.829Z,14.16
2022-10-02T17:37:02.425Z,14.22
2022-10-02T17:39:48.100Z,14.17
2022-10-02T17:42:41.303Z,14.17
2022-10-02T17:45:32.067Z,14.21
2022-10-02T17:48:39.575Z,14.19
2022-10-02T17:51:47.543Z,14.17
2022-10-02T17:54:50.011Z,14.14
2022-10-02T17:57:34.254Z,14.13
2022-10-02T18:00:30.260Z,14.17
2022-10-02T18:03:03.426Z,14.17
2022-10-02T18:06:04.762Z,14.13
2022-10-02T18:08:57.040Z,14.04
2022-10-02T18:11:34.678Z,14.02
2022-10-02T18:14:20.780Z,13.95
2022-10-02T18:17:15.458Z,13.96
2022-10-02T18:19:42.465Z,13.95
2022-10-02T18:22:24.470Z,13.95
2022-10-02T18:25:11.900Z,14.11
2022-10-02T18:28:17.587Z,14.01
2022-10-02T18:31:03.622Z,14.01
2022-10-02T18:33:49.487Z,14.09
2022-10-02T18:36:25.416Z,14.10
2022-10-02T18:39:13.254Z,14.02
2022-10-02T18:42:19.713Z,13.98
2022-10-02T18:44:58.335Z,14.10
2022-10-02T18:47:50.890Z,14.10
2022-10-02T18:50:29.239Z,14.20
2022-10-02T18:53:27.123Z,14.06
2022-10-02T18:56:13.319Z,14.04
2022-10-02T18:58:51.630Z,13.96
2022-10-02T19:01:46.455Z,13.91
2022-10-02T19:04:22.229Z,13.89
2022-10-02T19:06:53.404Z,13.89
2022-10-02T19:09:24.854Z,13.84
2022-10-02T19:12:16.120Z,13.84
2022-10-02T19:14:47.686Z,13.91
2022-10-02T19:17:26.094Z,13.85
2022-10-02T19:19:54.093Z,13.86
2022-10-02T19:22:23.632Z,13.84
2022-10-02T19:24:54.403Z,13.83
2022-10-02T19:27:29.983Z,13.80
2022-10-02T19:29:59.352Z,13.78
2022-10-02T19:32:41.241Z,13.76
2022-10-02T19:35:15.259Z,13.73
2022-10-02T19:37:43.327Z,13.67
2022-10-02T19:40:21.963Z,13.72
2022-10-02T19:42:56.006Z,13.68
2022-10-02T19:45:25.608Z,13.76
2022-10-02T19:48:05.071Z,13.69
2022-10-02T19:50:41.372Z,13.65
2022-10-02T19:53:29.853Z,13.67
2022-10-02T19:56:01.505Z,13.69
2022-10-02T19:58:34.634Z,13.78
2022-10-02T20:01:02.170Z,13.84
2022-10-02T20:03:30.115Z,13.83
2022-10-02T20:06:01.180Z,13.82
2022-10-02T20:08:36.472Z,13.78
2022-10-02T20:11:15.817Z,13.76
2022-10-02T20:13:48.477Z,13.75
2022-10-02T20:16:40.228Z,13.89
2022-10-02T20:19:14.000Z,13.93
2022-10-02T20:21:48.866Z,13.83
2022-10-02T20:24:22.375Z,13.77
2022-10-02T20:26:51.794Z,13.73
2022-10-02T20:29:24.009Z,13.80
2022-10-02T20:31:58.459Z,13.83
2022-10-02T20:34:31.511Z,13.78
2022-10-02T20:37:05.997Z,13.74
2022-10-02T20:39:40.897Z,13.70
2022-10-02T20:42:31.901Z,13.70
2022-10-02T20:44:58.751Z,13.80
2022-10-02T20:48:16.409Z,13.63
2022-10-02T20:50:50.512Z,13.52
2022-10-02T20:53:47.422Z,13.37
2022-10-02T20:56:40.694Z,13.32
2022-10-02T20:59:45.185Z,13.19
2022-10-02T21:02:22.866Z,13.20
2022-10-02T21:05:16.159Z,13.24
2022-10-02T21:07:45.925Z,13.14
2022-10-02T21:10:37.728Z,13.09
2022-10-02T21:13:28.702Z,13.05
2022-10-02T21:16:17.393Z,12.95
2022-10-02T21:19:03.795Z,12.87
2022-10-02T21:22:06.368Z,12.83
2022-10-02T21:24:54.552Z,12.78
2022-10-02T21:27:52.014Z,12.80
2022-10-02T21:30:22.753Z,12.79
2022-10-02T21:33:11.057Z,12.81
2022-10-02T21:35:46.154Z,12.79
2022-10-02T21:38:23.583Z,12.84
2022-10-02T21:41:14.713Z,12.78
2022-10-02T21:44:21.292Z,12.81
2022-10-02T21:46:51.431Z,12.77
2022-10-02T21:49:35.730Z,12.78
2022-10-02T21:52:53.279Z,12.76
2022-10-02T21:56:01.319Z,12.73
2022-10-02T21:58:54.508Z,12.71
2022-10-02T22:01:51.838Z,12.72
2022-10-02T22:05:03.317Z,12.70
2022-10-02T22:07:54.117Z,12.70
2022-10-02T22:10:35.219Z,12.64
2022-10-02T22:13:18.222Z,12.67
2022-10-02T22:15:57.244Z,12.61
2022-10-02T22:18:53.665Z,12.57
2022-10-02T22:21:25.882Z,12.52
2022-10-02T22:24:14.720Z,12.50
2022-10-02T22:27:17.235Z,12.53
2022-10-02T22:29:49.766Z,12.46
2022-10-02T22:33:05.161Z,12.47
2022-10-02T22:35:59.219Z,12.45
2022-10-02T22:38:50.744Z,12.44
2022-10-02T22:41:27.835Z,12.44
2022-10-02T22:44:24.332Z,12.48
2022-10-02T22:46:56.737Z,12.50
2022-10-02T22:49:43.136Z,12.46
2022-10-02T22:52:21.333Z,12.43
2022-10-02T22:55:07.917Z,12.40
2022-10-02T22:57:37.722Z,12.42
2022-10-02T23:00:26.273Z,12.57
2022-10-02T23:03:01.888Z,12.54
2022-10-02T23:05:43.834Z,12.58
2022-10-02T23:08:13.670Z,12.71
2022-10-02T23:10:46.681Z,12.58
2022-10-02T23:13:21.552Z,12.53
2022-10-02T23:15:53.192Z,12.56
2022-10-02T23:18:41.445Z,12.51
2022-10-02T23:21:40.035Z,12.43
2022-10-02T23:24:56.345Z,12.49
2022-10-02T23:28:01.827Z,12.57
2022-10-02T23:30:31.134Z,12.51
2022-10-02T23:33:13.943Z,12.55
2022-10-02T23:35:52.945Z,12.54
2022-10-02T23:38:30.242Z,12.54
2022-10-02T23:41:34.200Z,12.48
2022-10-02T23:44:19.452Z,12.37
2022-10-02T23:46:49.298Z,12.34
2022-10-02T23:49:18.421Z,12.40
2022-10-02T23:52:03.334Z,12.38
2022-10-02T23:54:39.529Z,12.39
2022-10-02T23:57:29.790Z,12.42
